sensor_id;sensor_type;location;lat;lon;timestamp;temperature;humidity
65854;DHT22;52627;48.838;2.402;2023-09-19T00:00:47;17.14;71.19
65854;DHT22;52627;48.838;2.402;2023-09-19T00:03:16;17.14;71.12
65854;DHT22;52627;48.838;2.402;2023-09-19T00:05:44;17.13;71.05
65854;DHT22;52627;48.838;2.402;2023-09-19T00:08:13;17.12;71.05
65854;DHT22;52627;48.838;2.402;2023-09-19T00:10:41;17.11;71.00
65854;DHT22;52627;48.838;2.402;2023-09-19T00:13:10;17.10;70.88
65854;DHT22;52627;48.838;2.402;2023-09-19T00:15:46;17.09;70.95
65854;DHT22;52627;48.838;2.402;2023-09-19T00:18:19;17.08;70.73
65854;DHT22;52627;48.838;2.402;2023-09-19T00:20:51;17.06;70.69
65854;DHT22;52627;48.838;2.402;2023-09-19T00:23:20;17.05;70.60
65854;DHT22;52627;48.838;2.402;2023-09-19T00:25:48;17.05;70.60
65854;DHT22;52627;48.838;2.402;2023-09-19T00:28:18;17.05;70.57
65854;DHT22;52627;48.838;2.402;2023-09-19T00:30:47;17.04;70.48
65854;DHT22;52627;48.838;2.402;2023-09-19T00:33:18;17.02;70.40
65854;DHT22;52627;48.838;2.402;2023-09-19T00:35:47;17.00;70.40
65854;DHT22;52627;48.838;2.402;2023-09-19T00:38:15;17.00;70.40
65854;DHT22;52627;48.838;2.402;2023-09-19T00:40:45;16.99;70.40
65854;DHT22;52627;48.838;2.402;2023-09-19T00:43:14;16.99;70.43
65854;DHT22;52627;48.838;2.402;2023-09-19T00:45:42;16.98;70.40
65854;DHT22;52627;48.838;2.402;2023-09-19T00:48:12;16.96;70.40
65854;DHT22;52627;48.838;2.402;2023-09-19T00:50:41;16.95;70.45
65854;DHT22;52627;48.838;2.402;2023-09-19T00:53:13;16.94;70.53
65854;DHT22;52627;48.838;2.402;2023-09-19T00:55:45;16.94;70.60
65854;DHT22;52627;48.838;2.402;2023-09-19T00:58:14;16.92;70.62
65854;DHT22;52627;48.838;2.402;2023-09-19T01:00:46;16.93;70.70
65854;DHT22;52627;48.838;2.402;2023-09-19T01:03:15;16.93;70.80
65854;DHT22;52627;48.838;2.402;2023-09-19T01:05:43;16.93;70.82
65854;DHT22;52627;48.838;2.402;2023-09-19T01:08:11;16.93;70.89
65854;DHT22;52627;48.838;2.402;2023-09-19T01:10:41;16.92;70.98
65854;DHT22;52627;48.838;2.402;2023-09-19T01:16:10;16.90;71.10
65854;DHT22;52627;48.838;2.402;2023-09-19T01:21:44;16.86;71.29
65854;DHT22;52627;48.838;2.402;2023-09-19T01:24:55;16.84;71.39
65854;DHT22;52627;48.838;2.402;2023-09-19T01:30:51;16.84;71.54
65854;DHT22;52627;48.838;2.402;2023-09-19T01:33:28;16.84;71.62
65854;DHT22;52627;48.838;2.402;2023-09-19T01:36:29;16.84;71.69
65854;DHT22;52627;48.838;2.402;2023-09-19T01:39:04;16.83;71.73
65854;DHT22;52627;48.838;2.402;2023-09-19T01:41:52;16.83;71.78
65854;DHT22;52627;48.838;2.402;2023-09-19T01:50:17;16.81;71.87
65854;DHT22;52627;48.838;2.402;2023-09-19T01:53:04;16.81;71.80
65854;DHT22;52627;48.838;2.402;2023-09-19T01:55:37;16.80;71.83
65854;DHT22;52627;48.838;2.402;2023-09-19T02:01:02;16.77;71.80
65854;DHT22;52627;48.838;2.402;2023-09-19T02:03:33;16.75;71.80
65854;DHT22;52627;48.838;2.402;2023-09-19T02:06:03;16.75;71.84
65854;DHT22;52627;48.838;2.402;2023-09-19T02:08:32;16.74;71.81
65854;DHT22;52627;48.838;2.402;2023-09-19T02:11:01;16.73;71.88
65854;DHT22;52627;48.838;2.402;2023-09-19T02:13:29;16.72;71.90
65854;DHT22;52627;48.838;2.402;2023-09-19T02:15:59;16.72;71.91
65854;DHT22;52627;48.838;2.402;2023-09-19T02:18:27;16.72;71.90
65854;DHT22;52627;48.838;2.402;2023-09-19T02:20:55;16.72;71.90
65854;DHT22;52627;48.838;2.402;2023-09-19T02:23:25;16.69;71.93
65854;DHT22;52627;48.838;2.402;2023-09-19T02:25:53;16.67;71.97
65854;DHT22;52627;48.838;2.402;2023-09-19T02:28:21;16.66;72.00
65854;DHT22;52627;48.838;2.402;2023-09-19T02:30:49;16.63;72.00
65854;DHT22;52627;48.838;2.402;2023-09-19T02:33:17;16.61;72.03
65854;DHT22;52627;48.838;2.402;2023-09-19T02:35:44;16.59;72.04
65854;DHT22;52627;48.838;2.402;2023-09-19T02:38:13;16.56;72.02
65854;DHT22;52627;48.838;2.402;2023-09-19T02:40:41;16.54;72.09
65854;DHT22;52627;48.838;2.402;2023-09-19T02:43:10;16.52;72.08
65854;DHT22;52627;48.838;2.402;2023-09-19T02:45:38;16.51;72.08
65854;DHT22;52627;48.838;2.402;2023-09-19T02:48:06;16.50;72.10
65854;DHT22;52627;48.838;2.402;2023-09-19T02:50:34;16.47;72.11
65854;DHT22;52627;48.838;2.402;2023-09-19T02:53:02;16.46;72.18
65854;DHT22;52627;48.838;2.402;2023-09-19T02:55:30;16.45;72.23
65854;DHT22;52627;48.838;2.402;2023-09-19T02:57:59;16.45;72.24
65854;DHT22;52627;48.838;2.402;2023-09-19T03:00:27;16.43;72.27
65854;DHT22;52627;48.838;2.402;2023-09-19T03:02:55;16.41;72.29
65854;DHT22;52627;48.838;2.402;2023-09-19T03:05:24;16.40;72.30
65854;DHT22;52627;48.838;2.402;2023-09-19T03:07:52;16.40;72.31
65854;DHT22;52627;48.838;2.402;2023-09-19T03:10:20;16.38;72.36
65854;DHT22;52627;48.838;2.402;2023-09-19T03:12:48;16.38;72.40
65854;DHT22;52627;48.838;2.402;2023-09-19T03:15:16;16.37;72.40
65854;DHT22;52627;48.838;2.402;2023-09-19T03:17:46;16.36;72.41
65854;DHT22;52627;48.838;2.402;2023-09-19T03:20:15;16.35;72.47
65854;DHT22;52627;48.838;2.402;2023-09-19T03:22:46;16.35;72.48
65854;DHT22;52627;48.838;2.402;2023-09-19T03:25:13;16.34;72.50
65854;DHT22;52627;48.838;2.402;2023-09-19T03:27:41;16.33;72.50
65854;DHT22;52627;48.838;2.402;2023-09-19T03:30:09;16.32;72.50
65854;DHT22;52627;48.838;2.402;2023-09-19T03:32:47;16.32;72.52
65854;DHT22;52627;48.838;2.402;2023-09-19T03:35:17;16.29;72.52
65854;DHT22;52627;48.838;2.402;2023-09-19T03:37:45;16.28;72.56
65854;DHT22;52627;48.838;2.402;2023-09-19T03:40:13;16.28;72.60
65854;DHT22;52627;48.838;2.402;2023-09-19T03:42:41;16.28;72.59
65854;DHT22;52627;48.838;2.402;2023-09-19T03:45:09;16.26;72.59
65854;DHT22;52627;48.838;2.402;2023-09-19T03:47:43;16.25;72.60
65854;DHT22;52627;48.838;2.402;2023-09-19T03:50:10;16.25;72.62
65854;DHT22;52627;48.838;2.402;2023-09-19T03:52:38;16.25;72.60
65854;DHT22;52627;48.838;2.402;2023-09-19T03:55:06;16.23;72.60
65854;DHT22;52627;48.838;2.402;2023-09-19T03:57:34;16.22;72.60
65854;DHT22;52627;48.838;2.402;2023-09-19T04:00:03;16.21;72.60
65854;DHT22;52627;48.838;2.402;2023-09-19T04:02:39;16.19;72.64
65854;DHT22;52627;48.838;2.402;2023-09-19T04:05:07;16.20;72.66
65854;DHT22;52627;48.838;2.402;2023-09-19T04:07:34;16.20;72.69
65854;DHT22;52627;48.838;2.402;2023-09-19T04:10:02;16.20;72.67
65854;DHT22;52627;48.838;2.402;2023-09-19T04:12:30;16.20;72.69
65854;DHT22;52627;48.838;2.402;2023-09-19T04:14:59;16.20;72.70
65854;DHT22;52627;48.838;2.402;2023-09-19T04:17:26;16.19;72.70
65854;DHT22;52627;48.838;2.402;2023-09-19T04:19:54;16.18;72.70
65854;DHT22;52627;48.838;2.402;2023-09-19T04:22:21;16.17;72.70
65854;DHT22;52627;48.838;2.402;2023-09-19T04:24:49;16.17;72.70
65854;DHT22;52627;48.838;2.402;2023-09-19T04:27:16;16.19;72.71
65854;DHT22;52627;48.838;2.402;2023-09-19T04:29:45;16.20;72.70
65854;DHT22;52627;48.838;2.402;2023-09-19T04:32:13;16.20;72.68
65854;DHT22;52627;48.838;2.402;2023-09-19T04:34:40;16.20;72.63
65854;DHT22;52627;48.838;2.402;2023-09-19T04:37:08;16.20;72.60
65854;DHT22;52627;48.838;2.402;2023-09-19T04:39:35;16.20;72.58
65854;DHT22;52627;48.838;2.402;2023-09-19T04:42:02;16.19;72.54
65854;DHT22;52627;48.838;2.402;2023-09-19T04:44:31;16.18;72.50
65854;DHT22;52627;48.838;2.402;2023-09-19T04:46:58;16.16;72.49
65854;DHT22;52627;48.838;2.402;2023-09-19T04:49:26;16.14;72.45
65854;DHT22;52627;48.838;2.402;2023-09-19T04:51:54;16.14;72.47
65854;DHT22;52627;48.838;2.402;2023-09-19T04:54:22;16.14;72.50
65854;DHT22;52627;48.838;2.402;2023-09-19T04:56:50;16.12;72.50
65854;DHT22;52627;48.838;2.402;2023-09-19T04:59:17;16.10;72.51
65854;DHT22;52627;48.838;2.402;2023-09-19T05:01:45;16.09;72.57
65854;DHT22;52627;48.838;2.402;2023-09-19T05:04:14;16.08;72.61
65854;DHT22;52627;48.838;2.402;2023-09-19T05:06:41;16.09;72.64
65854;DHT22;52627;48.838;2.402;2023-09-19T05:09:13;16.10;72.62
65854;DHT22;52627;48.838;2.402;2023-09-19T05:11:40;16.08;72.68
65854;DHT22;52627;48.838;2.402;2023-09-19T05:14:07;16.08;72.70
65854;DHT22;52627;48.838;2.402;2023-09-19T05:16:35;16.07;72.70
65854;DHT22;52627;48.838;2.402;2023-09-19T05:19:03;16.03;72.77
65854;DHT22;52627;48.838;2.402;2023-09-19T05:21:30;16.02;72.80
65854;DHT22;52627;48.838;2.402;2023-09-19T05:23:58;16.02;72.85
65854;DHT22;52627;48.838;2.402;2023-09-19T05:26:25;16.01;72.90
65854;DHT22;52627;48.838;2.402;2023-09-19T05:28:52;16.00;72.90
65854;DHT22;52627;48.838;2.402;2023-09-19T05:31:20;16.01;72.90
65854;DHT22;52627;48.838;2.402;2023-09-19T05:33:48;15.99;72.92
65854;DHT22;52627;48.838;2.402;2023-09-19T05:36:16;15.98;73.00
65854;DHT22;52627;48.838;2.402;2023-09-19T05:38:44;15.96;73.00
65854;DHT22;52627;48.838;2.402;2023-09-19T05:41:11;15.95;73.00
65854;DHT22;52627;48.838;2.402;2023-09-19T05:43:41;15.96;73.00
65854;DHT22;52627;48.838;2.402;2023-09-19T05:46:09;15.96;73.00
65854;DHT22;52627;48.838;2.402;2023-09-19T05:48:37;15.96;73.01
65854;DHT22;52627;48.838;2.402;2023-09-19T05:51:06;15.95;73.08
65854;DHT22;52627;48.838;2.402;2023-09-19T05:53:34;15.94;73.09
65854;DHT22;52627;48.838;2.402;2023-09-19T05:56:01;15.93;73.10
65854;DHT22;52627;48.838;2.402;2023-09-19T05:58:29;15.91;73.11
65854;DHT22;52627;48.838;2.402;2023-09-19T06:00:56;15.90;73.18
65854;DHT22;52627;48.838;2.402;2023-09-19T06:03:24;15.90;73.19
65854;DHT22;52627;48.838;2.402;2023-09-19T06:05:52;15.91;73.20
65854;DHT22;52627;48.838;2.402;2023-09-19T06:08:24;15.90;73.20
65854;DHT22;52627;48.838;2.402;2023-09-19T06:10:53;15.90;73.19
65854;DHT22;52627;48.838;2.402;2023-09-19T06:13:21;15.88;73.20
65854;DHT22;52627;48.838;2.402;2023-09-19T06:15:49;15.89;73.21
65854;DHT22;52627;48.838;2.402;2023-09-19T06:18:17;15.90;73.20
65854;DHT22;52627;48.838;2.402;2023-09-19T06:20:47;15.90;73.24
65854;DHT22;52627;48.838;2.402;2023-09-19T06:23:18;15.93;73.27
65854;DHT22;52627;48.838;2.402;2023-09-19T06:25:47;15.92;73.22
65854;DHT22;52627;48.838;2.402;2023-09-19T06:28:15;15.93;73.23
65854;DHT22;52627;48.838;2.402;2023-09-19T06:30:47;15.95;73.28
65854;DHT22;52627;48.838;2.402;2023-09-19T06:33:15;15.99;73.30
65854;DHT22;52627;48.838;2.402;2023-09-19T06:35:45;16.00;73.25
65854;DHT22;52627;48.838;2.402;2023-09-19T06:38:14;16.00;73.23
65854;DHT22;52627;48.838;2.402;2023-09-19T06:40:42;16.02;73.20
65854;DHT22;52627;48.838;2.402;2023-09-19T06:43:10;16.04;73.26
65854;DHT22;52627;48.838;2.402;2023-09-19T06:45:38;16.07;73.25
65854;DHT22;52627;48.838;2.402;2023-09-19T06:48:06;16.14;73.23
65854;DHT22;52627;48.838;2.402;2023-09-19T06:50:34;16.20;73.20
65854;DHT22;52627;48.838;2.402;2023-09-19T06:53:01;16.24;73.12
65854;DHT22;52627;48.838;2.402;2023-09-19T06:55:29;16.27;72.99
65854;DHT22;52627;48.838;2.402;2023-09-19T06:58:00;16.28;72.92
65854;DHT22;52627;48.838;2.402;2023-09-19T07:00:27;16.30;72.85
65854;DHT22;52627;48.838;2.402;2023-09-19T07:02:56;16.29;72.79
65854;DHT22;52627;48.838;2.402;2023-09-19T07:05:28;16.31;72.74
65854;DHT22;52627;48.838;2.402;2023-09-19T07:08:00;16.33;72.70
65854;DHT22;52627;48.838;2.402;2023-09-19T07:10:28;16.35;72.66
65854;DHT22;52627;48.838;2.402;2023-09-19T07:13:00;16.37;72.61
65854;DHT22;52627;48.838;2.402;2023-09-19T07:15:32;16.40;72.50
65854;DHT22;52627;48.838;2.402;2023-09-19T07:18:03;16.43;72.43
65854;DHT22;52627;48.838;2.402;2023-09-19T07:20:31;16.47;72.33
65854;DHT22;52627;48.838;2.402;2023-09-19T07:23:00;16.48;72.21
65854;DHT22;52627;48.838;2.402;2023-09-19T07:25:28;16.52;72.17
65854;DHT22;52627;48.838;2.402;2023-09-19T07:27:56;16.58;72.06
65854;DHT22;52627;48.838;2.402;2023-09-19T07:30:28;16.62;71.93
65854;DHT22;52627;48.838;2.402;2023-09-19T07:32:56;16.66;71.74
65854;DHT22;52627;48.838;2.402;2023-09-19T07:35:24;16.71;71.66
65854;DHT22;52627;48.838;2.402;2023-09-19T07:37:53;16.75;71.54
65854;DHT22;52627;48.838;2.402;2023-09-19T07:40:20;16.78;71.43
65854;DHT22;52627;48.838;2.402;2023-09-19T07:42:48;16.80;71.29
65854;DHT22;52627;48.838;2.402;2023-09-19T07:45:20;16.82;71.19
65854;DHT22;52627;48.838;2.402;2023-09-19T07:47:48;16.85;71.03
65854;DHT22;52627;48.838;2.402;2023-09-19T07:50:18;16.89;70.87
65854;DHT22;52627;48.838;2.402;2023-09-19T07:52:47;16.93;70.81
65854;DHT22;52627;48.838;2.402;2023-09-19T07:55:18;16.99;70.73
65854;DHT22;52627;48.838;2.402;2023-09-19T07:57:52;17.05;70.57
65854;DHT22;52627;48.838;2.402;2023-09-19T08:00:20;17.10;70.45
65854;DHT22;52627;48.838;2.402;2023-09-19T08:02:47;17.15;70.33
65854;DHT22;52627;48.838;2.402;2023-09-19T08:05:24;17.16;70.06
65854;DHT22;52627;48.838;2.402;2023-09-19T08:07:52;17.19;70.01
65854;DHT22;52627;48.838;2.402;2023-09-19T08:10:21;17.23;70.01
65854;DHT22;52627;48.838;2.402;2023-09-19T08:12:49;17.25;69.82
65854;DHT22;52627;48.838;2.402;2023-09-19T08:15:23;17.25;69.64
65854;DHT22;52627;48.838;2.402;2023-09-19T08:17:50;17.27;69.50
65854;DHT22;52627;48.838;2.402;2023-09-19T08:20:18;17.26;69.31
65854;DHT22;52627;48.838;2.402;2023-09-19T08:22:47;17.25;69.20
65854;DHT22;52627;48.838;2.402;2023-09-19T08:25:23;17.25;69.14
65854;DHT22;52627;48.838;2.402;2023-09-19T08:27:54;17.25;68.94
65854;DHT22;52627;48.838;2.402;2023-09-19T08:30:24;17.26;68.89
65854;DHT22;52627;48.838;2.402;2023-09-19T08:32:58;17.25;68.65
65854;DHT22;52627;48.838;2.402;2023-09-19T08:35:27;17.25;68.60
65854;DHT22;52627;48.838;2.402;2023-09-19T08:37:54;17.27;68.60
65854;DHT22;52627;48.838;2.402;2023-09-19T08:40:23;17.30;68.54
65854;DHT22;52627;48.838;2.402;2023-09-19T08:42:56;17.32;68.50
65854;DHT22;52627;48.838;2.402;2023-09-19T08:45:24;17.35;68.45
65854;DHT22;52627;48.838;2.402;2023-09-19T08:48:02;17.39;68.40
65854;DHT22;52627;48.838;2.402;2023-09-19T08:50:56;17.40;68.28
65854;DHT22;52627;48.838;2.402;2023-09-19T08:56:01;17.47;68.27
65854;DHT22;52627;48.838;2.402;2023-09-19T08:58:31;17.51;68.21
65854;DHT22;52627;48.838;2.402;2023-09-19T09:01:08;17.51;68.20
65854;DHT22;52627;48.838;2.402;2023-09-19T09:03:39;17.55;68.14
65854;DHT22;52627;48.838;2.402;2023-09-19T09:06:15;17.58;68.10
65854;DHT22;52627;48.838;2.402;2023-09-19T09:08:45;17.59;68.07
65854;DHT22;52627;48.838;2.402;2023-09-19T09:11:15;17.63;67.99
65854;DHT22;52627;48.838;2.402;2023-09-19T09:13:44;17.65;67.90
65854;DHT22;52627;48.838;2.402;2023-09-19T09:16:13;17.68;67.90
65854;DHT22;52627;48.838;2.402;2023-09-19T09:18:46;17.71;67.85
65854;DHT22;52627;48.838;2.402;2023-09-19T09:21:21;17.75;67.76
65854;DHT22;52627;48.838;2.402;2023-09-19T09:23:49;17.76;67.56
65854;DHT22;52627;48.838;2.402;2023-09-19T09:26:52;17.77;67.43
65854;DHT22;52627;48.838;2.402;2023-09-19T09:29:14;17.80;67.34
65854;DHT22;52627;48.838;2.402;2023-09-19T09:31:47;17.82;67.27
65854;DHT22;52627;48.838;2.402;2023-09-19T09:34:15;17.86;67.22
65854;DHT22;52627;48.838;2.402;2023-09-19T09:36:43;17.90;67.19
65854;DHT22;52627;48.838;2.402;2023-09-19T09:39:15;17.95;67.03
65854;DHT22;52627;48.838;2.402;2023-09-19T09:41:58;18.00;66.83
65854;DHT22;52627;48.838;2.402;2023-09-19T09:44:26;18.04;66.82
65854;DHT22;52627;48.838;2.402;2023-09-19T09:46:59;18.10;66.66
65854;DHT22;52627;48.838;2.402;2023-09-19T09:49:49;18.16;66.40
65854;DHT22;52627;48.838;2.402;2023-09-19T09:52:22;18.22;66.11
65854;DHT22;52627;48.838;2.402;2023-09-19T09:55:02;18.26;65.96
65854;DHT22;52627;48.838;2.402;2023-09-19T09:57:35;18.34;65.74
65854;DHT22;52627;48.838;2.402;2023-09-19T10:00:03;18.44;65.53
65854;DHT22;52627;48.838;2.402;2023-09-19T10:02:40;18.51;65.20
65854;DHT22;52627;48.838;2.402;2023-09-19T10:05:11;18.57;65.02
65854;DHT22;52627;48.838;2.402;2023-09-19T10:07:50;18.61;64.74
65854;DHT22;52627;48.838;2.402;2023-09-19T10:10:31;18.65;64.44
65854;DHT22;52627;48.838;2.402;2023-09-19T10:13:07;18.67;64.09
65854;DHT22;52627;48.838;2.402;2023-09-19T10:15:47;18.71;63.85
65854;DHT22;52627;48.838;2.402;2023-09-19T10:18:23;18.76;63.75
65854;DHT22;52627;48.838;2.402;2023-09-19T10:20:54;18.79;63.54
65854;DHT22;52627;48.838;2.402;2023-09-19T10:23:24;18.82;63.38
65854;DHT22;52627;48.838;2.402;2023-09-19T10:25:56;18.83;63.13
65854;DHT22;52627;48.838;2.402;2023-09-19T10:28:26;18.87;63.00
65854;DHT22;52627;48.838;2.402;2023-09-19T10:30:56;18.95;62.94
65854;DHT22;52627;48.838;2.402;2023-09-19T10:33:26;19.05;62.62
65854;DHT22;52627;48.838;2.402;2023-09-19T10:35:54;19.16;62.31
65854;DHT22;52627;48.838;2.402;2023-09-19T10:38:27;19.25;61.90
65854;DHT22;52627;48.838;2.402;2023-09-19T10:40:56;19.33;61.88
65854;DHT22;52627;48.838;2.402;2023-09-19T10:43:32;19.42;61.88
65854;DHT22;52627;48.838;2.402;2023-09-19T10:46:03;19.51;61.60
65854;DHT22;52627;48.838;2.402;2023-09-19T10:48:38;19.60;61.47
65854;DHT22;52627;48.838;2.402;2023-09-19T10:51:09;19.66;61.20
65854;DHT22;52627;48.838;2.402;2023-09-19T10:56:37;19.76;61.02
65854;DHT22;52627;48.838;2.402;2023-09-19T10:59:13;19.83;60.84
65854;DHT22;52627;48.838;2.402;2023-09-19T11:01:47;19.88;60.64
65854;DHT22;52627;48.838;2.402;2023-09-19T11:04:24;19.92;60.36
65854;DHT22;52627;48.838;2.402;2023-09-19T11:07:07;19.94;60.18
65854;DHT22;52627;48.838;2.402;2023-09-19T11:09:51;19.94;60.09
65854;DHT22;52627;48.838;2.402;2023-09-19T11:15:03;19.98;59.78
65854;DHT22;52627;48.838;2.402;2023-09-19T11:17:41;20.01;59.75
65854;DHT22;52627;48.838;2.402;2023-09-19T11:30:49;20.23;58.88
65854;DHT22;52627;48.838;2.402;2023-09-19T11:33:21;20.25;58.75
65854;DHT22;52627;48.838;2.402;2023-09-19T11:41:39;20.32;58.36
65854;DHT22;52627;48.838;2.402;2023-09-19T11:49:18;20.31;57.97
65854;DHT22;52627;48.838;2.402;2023-09-19T11:51:50;20.36;57.85
65854;DHT22;52627;48.838;2.402;2023-09-19T11:54:18;20.40;57.84
65854;DHT22;52627;48.838;2.402;2023-09-19T11:56:49;20.47;57.90
65854;DHT22;52627;48.838;2.402;2023-09-19T11:59:21;20.54;57.76
65854;DHT22;52627;48.838;2.402;2023-09-19T12:01:56;20.58;57.73
65854;DHT22;52627;48.838;2.402;2023-09-19T12:04:35;20.65;57.69
65854;DHT22;52627;48.838;2.402;2023-09-19T12:07:11;20.71;57.60
65854;DHT22;52627;48.838;2.402;2023-09-19T12:09:45;20.71;57.50
65854;DHT22;52627;48.838;2.402;2023-09-19T12:12:25;20.67;57.48
65854;DHT22;52627;48.838;2.402;2023-09-19T12:15:02;20.64;57.64
65854;DHT22;52627;48.838;2.402;2023-09-19T12:17:40;20.67;57.70
65854;DHT22;52627;48.838;2.402;2023-09-19T12:20:10;20.70;57.72
65854;DHT22;52627;48.838;2.402;2023-09-19T12:22:43;20.73;57.73
65854;DHT22;52627;48.838;2.402;2023-09-19T12:25:14;20.76;57.78
65854;DHT22;52627;48.838;2.402;2023-09-19T12:27:46;20.80;57.80
65854;DHT22;52627;48.838;2.402;2023-09-19T12:30:21;20.83;57.78
65854;DHT22;52627;48.838;2.402;2023-09-19T12:32:55;20.82;57.73
65854;DHT22;52627;48.838;2.402;2023-09-19T12:35:27;20.82;57.83
65854;DHT22;52627;48.838;2.402;2023-09-19T12:37:57;20.85;57.91
65854;DHT22;52627;48.838;2.402;2023-09-19T12:40:26;20.83;57.88
65854;DHT22;52627;48.838;2.402;2023-09-19T12:42:57;20.80;57.81
65854;DHT22;52627;48.838;2.402;2023-09-19T12:45:31;20.79;57.88
65854;DHT22;52627;48.838;2.402;2023-09-19T12:53:39;20.99;57.91
65854;DHT22;52627;48.838;2.402;2023-09-19T12:56:14;21.05;57.92
65854;DHT22;52627;48.838;2.402;2023-09-19T13:01:23;21.51;57.69
65854;DHT22;52627;48.838;2.402;2023-09-19T13:06:48;21.69;57.07
65854;DHT22;52627;48.838;2.402;2023-09-19T13:09:18;21.63;57.00
65854;DHT22;52627;48.838;2.402;2023-09-19T13:11:48;21.59;56.99
65854;DHT22;52627;48.838;2.402;2023-09-19T13:19:43;21.59;56.70
65854;DHT22;52627;48.838;2.402;2023-09-19T13:22:40;21.59;56.63
65854;DHT22;52627;48.838;2.402;2023-09-19T13:25:17;21.69;56.57
65854;DHT22;52627;48.838;2.402;2023-09-19T13:27:47;21.81;56.38
65854;DHT22;52627;48.838;2.402;2023-09-19T13:30:23;21.88;56.10
65854;DHT22;52627;48.838;2.402;2023-09-19T13:33:04;21.99;55.94
65854;DHT22;52627;48.838;2.402;2023-09-19T13:35:38;22.12;55.67
65854;DHT22;52627;48.838;2.402;2023-09-19T13:38:09;22.30;55.51
65854;DHT22;52627;48.838;2.402;2023-09-19T13:40:39;22.46;55.32
65854;DHT22;52627;48.838;2.402;2023-09-19T13:43:09;22.53;55.20
65854;DHT22;52627;48.838;2.402;2023-09-19T13:45:38;22.54;55.13
65854;DHT22;52627;48.838;2.402;2023-09-19T13:48:09;22.50;54.93
65854;DHT22;52627;48.838;2.402;2023-09-19T13:50:38;22.53;54.82
65854;DHT22;52627;48.838;2.402;2023-09-19T13:53:09;22.60;54.64
65854;DHT22;52627;48.838;2.402;2023-09-19T13:55:37;22.64;54.16
65854;DHT22;52627;48.838;2.402;2023-09-19T13:58:05;22.59;54.03
65854;DHT22;52627;48.838;2.402;2023-09-19T14:00:34;22.59;53.85
65854;DHT22;52627;48.838;2.402;2023-09-19T14:03:01;22.63;53.57
65854;DHT22;52627;48.838;2.402;2023-09-19T14:05:29;22.70;53.37
65854;DHT22;52627;48.838;2.402;2023-09-19T14:07:58;22.85;53.13
65854;DHT22;52627;48.838;2.402;2023-09-19T14:10:26;22.94;53.03
65854;DHT22;52627;48.838;2.402;2023-09-19T14:12:54;22.94;52.87
65854;DHT22;52627;48.838;2.402;2023-09-19T14:15:22;22.89;52.84
65854;DHT22;52627;48.838;2.402;2023-09-19T14:17:57;22.81;52.76
65854;DHT22;52627;48.838;2.402;2023-09-19T14:20:27;22.70;52.70
65854;DHT22;52627;48.838;2.402;2023-09-19T14:22:54;22.62;52.61
65854;DHT22;52627;48.838;2.402;2023-09-19T14:25:22;22.57;52.50
65854;DHT22;52627;48.838;2.402;2023-09-19T14:27:50;22.51;52.48
65854;DHT22;52627;48.838;2.402;2023-09-19T14:30:18;22.48;52.41
65854;DHT22;52627;48.838;2.402;2023-09-19T14:32:46;22.47;52.43
65854;DHT22;52627;48.838;2.402;2023-09-19T14:35:14;22.49;52.58
65854;DHT22;52627;48.838;2.402;2023-09-19T14:37:42;22.55;52.64
65854;DHT22;52627;48.838;2.402;2023-09-19T14:40:10;22.62;52.60
65854;DHT22;52627;48.838;2.402;2023-09-19T14:42:40;22.64;52.59
65854;DHT22;52627;48.838;2.402;2023-09-19T14:45:08;22.61;52.59
65854;DHT22;52627;48.838;2.402;2023-09-19T14:47:36;22.58;52.67
65854;DHT22;52627;48.838;2.402;2023-09-19T14:50:05;22.52;52.70
65854;DHT22;52627;48.838;2.402;2023-09-19T14:52:34;22.47;52.76
65854;DHT22;52627;48.838;2.402;2023-09-19T14:55:03;22.45;52.81
65854;DHT22;52627;48.838;2.402;2023-09-19T14:57:33;22.50;52.89
65854;DHT22;52627;48.838;2.402;2023-09-19T15:00:00;22.59;52.86
65854;DHT22;52627;48.838;2.402;2023-09-19T15:02:28;22.64;52.90
65854;DHT22;52627;48.838;2.402;2023-09-19T15:04:57;22.72;52.88
65854;DHT22;52627;48.838;2.402;2023-09-19T15:07:24;22.77;52.90
65854;DHT22;52627;48.838;2.402;2023-09-19T15:09:53;22.76;52.96
65854;DHT22;52627;48.838;2.402;2023-09-19T15:12:21;22.73;53.01
65854;DHT22;52627;48.838;2.402;2023-09-19T15:14:48;22.67;53.03
65854;DHT22;52627;48.838;2.402;2023-09-19T15:17:16;22.64;53.09
65854;DHT22;52627;48.838;2.402;2023-09-19T15:19:44;22.61;53.18
65854;DHT22;52627;48.838;2.402;2023-09-19T15:22:11;22.58;53.17
65854;DHT22;52627;48.838;2.402;2023-09-19T15:24:40;22.55;53.17
65854;DHT22;52627;48.838;2.402;2023-09-19T15:27:07;22.51;53.19
65854;DHT22;52627;48.838;2.402;2023-09-19T15:29:34;22.50;53.23
65854;DHT22;52627;48.838;2.402;2023-09-19T15:32:02;22.49;53.20
65854;DHT22;52627;48.838;2.402;2023-09-19T15:34:30;22.48;53.18
65854;DHT22;52627;48.838;2.402;2023-09-19T15:36:57;22.47;53.24
65854;DHT22;52627;48.838;2.402;2023-09-19T15:39:25;22.48;53.27
65854;DHT22;52627;48.838;2.402;2023-09-19T15:41:53;22.50;53.29
65854;DHT22;52627;48.838;2.402;2023-09-19T15:44:22;22.51;53.29
65854;DHT22;52627;48.838;2.402;2023-09-19T15:46:51;22.53;53.32
65854;DHT22;52627;48.838;2.402;2023-09-19T15:49:18;22.53;53.29
65854;DHT22;52627;48.838;2.402;2023-09-19T15:51:46;22.53;53.23
65854;DHT22;52627;48.838;2.402;2023-09-19T15:54:14;22.53;53.19
65854;DHT22;52627;48.838;2.402;2023-09-19T15:56:42;22.51;53.18
65854;DHT22;52627;48.838;2.402;2023-09-19T15:59:12;22.50;53.20
65854;DHT22;52627;48.838;2.402;2023-09-19T16:01:41;22.50;53.28
65854;DHT22;52627;48.838;2.402;2023-09-19T16:04:11;22.52;53.31
65854;DHT22;52627;48.838;2.402;2023-09-19T16:06:40;22.54;53.39
65854;DHT22;52627;48.838;2.402;2023-09-19T16:09:08;22.56;53.42
65854;DHT22;52627;48.838;2.402;2023-09-19T16:11:37;22.55;53.46
65854;DHT22;52627;48.838;2.402;2023-09-19T16:14:05;22.55;53.56
65854;DHT22;52627;48.838;2.402;2023-09-19T16:16:34;22.57;53.59
65854;DHT22;52627;48.838;2.402;2023-09-19T16:19:02;22.57;53.60
65854;DHT22;52627;48.838;2.402;2023-09-19T16:21:33;22.56;53.61
65854;DHT22;52627;48.838;2.402;2023-09-19T16:24:04;22.54;53.65
65854;DHT22;52627;48.838;2.402;2023-09-19T16:26:36;22.51;53.66
65854;DHT22;52627;48.838;2.402;2023-09-19T16:29:04;22.47;53.70
65854;DHT22;52627;48.838;2.402;2023-09-19T16:31:32;22.43;53.78
65854;DHT22;52627;48.838;2.402;2023-09-19T16:34:00;22.39;53.84
65854;DHT22;52627;48.838;2.402;2023-09-19T16:36:28;22.35;54.00
65854;DHT22;52627;48.838;2.402;2023-09-19T16:38:56;22.30;54.15
65854;DHT22;52627;48.838;2.402;2023-09-19T16:41:24;22.27;54.29
65854;DHT22;52627;48.838;2.402;2023-09-19T16:43:51;22.24;54.41
65854;DHT22;52627;48.838;2.402;2023-09-19T16:46:19;22.23;54.52
65854;DHT22;52627;48.838;2.402;2023-09-19T16:48:47;22.25;54.67
65854;DHT22;52627;48.838;2.402;2023-09-19T16:51:21;22.23;54.74
65854;DHT22;52627;48.838;2.402;2023-09-19T16:53:48;22.22;54.86